Terminal Aerodrome Forecast
Issued by NWS Upton, NY

Current Version | Previous Version | Text Only | Print | Product List | Glossary On
Versions: 1 2 3 4 5 6 7 8 9 10 11 12 13 14 15 16 17 18 19 20 21 22 23 24 25 26 27 28 29 30 31 32 33
471 FTUS41 KOKX 010124 AAA TAFBDR TAF AMD KBDR 010124Z 0101/0124 05016G20KT P6SM SCT014 OVC022 TEMPO 0101/0104 5SM -DZ BR BKN007 FM011300 04012KT 6SM -SHRA OVC012 FM011800 05010KT 3SM -SHRA BR OVC007=

USA.gov is the U.S. government's official web portal to all federal, state and local government web resources and services.